Arnot, Pennsylvania
Current Conditions -  °F | °C
As of 7:15 PM on Sunday 25 Jan 2015 (Local Time) from KN38 Reporting Station
Scattered Clouds Scattered Clouds  
Wind Chill: -13°   Ceiling: Unl
Heat Index: -7°   Visibility: 10mi
Dew Point: -14°   Wind: 10mph
Humidity: 58%   Direction: 20°NNE
Pressure: 29.87"   Gusts: NA
Location:  41.66°N, 77.12°W
Report Text: KN38 260015Z AUTO 02009KT 10SM SCT040 M07/M14 A2987 RMK AO2
Loading
Personal Weather Stations






























Interactive Weather Map New forecast layout! Learn more

10-Day Weather Forecast

Advertisements
Track Severe Weather on mobile